• Join FlightAware (Why Join?)
  • Login
  • US Flag 
08:08PM EDT


 

Airport Tracker/Info


-or-


 

Live Flight TrackerFlight Track Log ✈ UAL5835 ✈ 09-Sep-2013 ✈ KFSD - KORD

Flight Track Log - Related Links

Times and Time Zones

All times are in EDT time to prevent confusion due to time zone crossing. See the UAL5835 flight status page for this flight to view local times or setup timezone preferences in your user account.

Time Position Orientation Groundspeed Altitude Reporting Facility
EDT Latitude Longitude Course Direction KTS MPH feet Rate Location/Type
03:33PM 43.6431 -96.6986 50° Northeast 242 278 4,300  Level Minneapolis Center
03:34PM 43.6364 -96.5972 95° East 256 295 5,700 1,680 Climbing Minneapolis Center
03:35PM 43.5123 -96.2473 97° East  Level Estimated
03:35PM 43.6264 -96.4606 96° East 280 322 8,200  Level Minneapolis Center
03:36PM 43.5261 -96.1228 81° East  Level FlightAware Approximate
03:36PM 43.6183 -96.3403 95° East 298 343 10,100  Level Minneapolis Center
03:37PM 43.5398 -95.9983 81° East  Level FlightAware Approximate
03:37PM 43.6067 -96.1756 96° East 333 383 10,900  Level Minneapolis Center
03:38PM 43.5950 -96.0247 96° East 385 443 12,300 1,380 Climbing Minneapolis Center
03:39PM 43.5831 -95.8739 96° East 398 458 13,800 1,380 Climbing Minneapolis Center
03:40PM 43.5725 -95.7183 95° East 405 466 15,200 1,500 Climbing Minneapolis Center
03:41PM 43.5575 -95.5364 96° East 403 464 17,000 1,500 Climbing Minneapolis Center
03:42PM 43.5458 -95.3811 96° East 407 468 18,400 1,200 Climbing Minneapolis Center
03:43PM 43.5325 -95.2247 97° East 411 473 19,600 1,020 Climbing Minneapolis Center
03:44PM 43.5225 -95.0975 96° East 418 481 20,600 1,080 Climbing Minneapolis Center
03:45PM 43.5064 -94.9047 97° East 424 488 21,900 1,140 Climbing Minneapolis Center
03:46PM 43.4928 -94.7442 97° East 424 488 23,000 1,080 Climbing Minneapolis Center
03:47PM 43.4758 -94.5522 97° East 424 488 24,200 960 Climbing Minneapolis Center
03:48PM 43.4619 -94.3894 97° East 429 494 25,100 960 Climbing Minneapolis Center
03:49PM 43.4456 -94.2164 97° East 431 496 26,200 960 Climbing Minneapolis Center
03:50PM 43.4303 -94.0544 97° East 431 496 27,200 960 Climbing Minneapolis Center
03:51PM 43.4158 -93.8922 97° East 431 496 28,200 960 Climbing Minneapolis Center
03:52PM 43.3997 -93.7294 98° East 433 498 29,300 1,080 Climbing Minneapolis Center
03:53PM 43.3844 -93.5683 97° East 431 496 30,500 840 Climbing Minneapolis Center
03:55PM 43.3669 -93.3744 97° East 430 495 31,100 240 Climbing Minneapolis Center
03:56PM 43.3489 -93.2042 98° East 446 513 31,000 -60 Descending Minneapolis Center
03:57PM 43.3306 -93.0264 98° East 467 537 31,000  Level Minneapolis Center
03:58PM 43.3067 -92.7747 97° East 477 549 31,000  Level Minneapolis Center
03:59PM 43.2881 -92.5950 98° East 480 552 31,100  Climbing Minneapolis Center
04:00PM 43.2653 -92.3819 98° East 475 547 31,000 -60 Descending Minneapolis Center
04:01PM 43.2483 -92.2400 99° East 479 551 31,000  Level Chicago Center
04:02PM 43.2244 -92.0242 99° East 480 552 31,000  Level Chicago Center
04:03PM 43.2056 -91.8439 98° East 481 554 31,000  Level Chicago Center
04:04PM 43.1831 -91.6633 100° East 481 554 31,100  Climbing Chicago Center
04:05PM 43.1292 -91.4958 114° Southeast 480 552 31,000 -60 Descending Chicago Center
04:06PM 43.0722 -91.3306 115° Southeast 479 551 31,000  Level Chicago Center
04:07PM 43.0144 -91.1661 116° Southeast 479 551 31,000  Level Chicago Center
04:08PM 42.9458 -90.9694 115° Southeast 479 551 31,000  Level Chicago Center
04:09PM 42.8892 -90.8056 115° Southeast 479 551 31,000  Level Chicago Center
04:10PM 42.8322 -90.6422 115° Southeast 479 551 31,100  Climbing Chicago Center
04:11PM 42.7744 -90.4819 116° Southeast 474 545 31,000 -960 Descending Chicago Center
04:12PM 42.7161 -90.3200 116° Southeast 479 551 29,200 -2,100 Descending Chicago Center
04:13PM 42.6464 -90.1211 115° Southeast 488 562 26,700 -2,100 Descending Chicago Center
04:15PM 42.5847 -89.9547 117° Southeast 494 568 24,900 -1,800 Descending Chicago Center
04:16PM 42.5333 -89.7883 113° Southeast 477 549 23,100 -1,800 Descending Chicago Center
04:17PM 42.5122 -89.6131 99° East 471 542 21,300 -2,100 Descending Chicago Center
04:18PM 42.4914 -89.4453 100° East 460 529 18,800 -2,700 Descending Chicago Center
04:19PM 42.4681 -89.2508 99° East 443 510 15,700 -2,640 Descending Chicago Center
04:20PM 42.4497 -89.0953 99° East 431 496 13,400 -2,280 Descending Chicago Center
04:21PM 42.4311 -88.9433 99° East 417 480 11,100 -1,680 Descending Chicago Center
04:22PM 42.4125 -88.8006 100° East 400 460 10,000 -540 Descending Chicago Center
04:23PM 42.3961 -88.6669 99° East 374 430 10,000 -420 Level Chicago Center
04:24PM 42.3792 -88.5261 99° East 323 372 9,200 -780 Descending Chicago Center
04:25PM 42.3550 -88.4197 107° East 300 345 8,400 -900 Descending Chicago Center
04:26PM 42.3253 -88.3111 110° East 305 351 7,400 -720 Descending Chicago Center
04:27PM 42.2597 -88.2392 141° Southeast 307 353 7,000 -540 Descending Chicago Center
04:28PM 42.1978 -88.1683 140° Southeast 299 344 6,400 -1,320 Descending Chicago Center
04:29PM 42.1242 -88.0869 141° Southeast 291 335 4,300 -1,980 Descending Chicago Center
04:30PM 42.0833 -88.0333 136° Southeast 265 305 3,000 -1,440 Descending Chicago TRACON
04:31PM 42.0333 -87.9833 143° Southeast 177 204 1,900 -900 Descending Chicago TRACON
04:32PM 42.0167 -87.9500 124° Southeast 137 158 1,200 -720 Descending Chicago TRACON